sensor_id;sensor_type;location;lat;lon;timestamp;pressure;altitude;pressure_sealevel;temperature;humidity
67517;BME280;54359;59.124;37.910;2023-03-04T00:02:00;97782.25;;;-0.83;77.24
67517;BME280;54359;59.124;37.910;2023-03-04T00:04:25;97794.97;;;-0.78;77.04
67517;BME280;54359;59.124;37.910;2023-03-04T00:06:51;97782.16;;;-0.87;76.75
67517;BME280;54359;59.124;37.910;2023-03-04T00:09:17;97785.56;;;-0.85;77.15
67517;BME280;54359;59.124;37.910;2023-03-04T00:11:42;97784.66;;;-0.89;77.25
67517;BME280;54359;59.124;37.910;2023-03-04T00:14:08;97783.84;;;-0.88;77.27
67517;BME280;54359;59.124;37.910;2023-03-04T00:16:34;97777.84;;;-0.93;76.85
67517;BME280;54359;59.124;37.910;2023-03-04T00:19:00;97787.97;;;-0.91;76.98
67517;BME280;54359;59.124;37.910;2023-03-04T00:21:25;97778.63;;;-0.95;77.13
67517;BME280;54359;59.124;37.910;2023-03-04T00:23:51;97775.19;;;-1.00;77.17
67517;BME280;54359;59.124;37.910;2023-03-04T00:26:17;97772.59;;;-1.04;76.81
67517;BME280;54359;59.124;37.910;2023-03-04T00:28:44;97763.22;;;-1.11;76.65
67517;BME280;54359;59.124;37.910;2023-03-04T00:31:10;97771.53;;;-1.13;77.03
67517;BME280;54359;59.124;37.910;2023-03-04T00:33:36;97761.44;;;-1.15;76.98
67517;BME280;54359;59.124;37.910;2023-03-04T00:36:03;97760.56;;;-1.17;76.93
67517;BME280;54359;59.124;37.910;2023-03-04T00:38:29;97764.72;;;-1.17;77.05
67517;BME280;54359;59.124;37.910;2023-03-04T00:40:55;97761.31;;;-1.19;77.35
67517;BME280;54359;59.124;37.910;2023-03-04T00:43:21;97768.88;;;-1.19;77.24
67517;BME280;54359;59.124;37.910;2023-03-04T00:45:46;97759.59;;;-1.22;77.16
67517;BME280;54359;59.124;37.910;2023-03-04T00:48:13;97767.13;;;-1.24;77.29
67517;BME280;54359;59.124;37.910;2023-03-04T00:50:41;97755.25;;;-1.29;76.78
67517;BME280;54359;59.124;37.910;2023-03-04T00:53:07;97763.75;;;-1.24;77.13
67517;BME280;54359;59.124;37.910;2023-03-04T00:55:32;97763.72;;;-1.26;77.40
67517;BME280;54359;59.124;37.910;2023-03-04T00:57:58;97762.97;;;-1.22;77.18
67517;BME280;54359;59.124;37.910;2023-03-04T01:00:24;97756.28;;;-1.21;77.22
67517;BME280;54359;59.124;37.910;2023-03-04T01:02:50;97758.81;;;-1.19;76.80
67517;BME280;54359;59.124;37.910;2023-03-04T01:05:15;97754.66;;;-1.17;77.19
67517;BME280;54359;59.124;37.910;2023-03-04T01:07:41;97751.28;;;-1.18;77.08
67517;BME280;54359;59.124;37.910;2023-03-04T01:10:09;97757.22;;;-1.16;77.26
67517;BME280;54359;59.124;37.910;2023-03-04T01:12:35;97753.00;;;-1.17;76.91
67517;BME280;54359;59.124;37.910;2023-03-04T01:15:01;97752.13;;;-1.19;77.33
67517;BME280;54359;59.124;37.910;2023-03-04T01:17:26;97753.00;;;-1.17;77.26
67517;BME280;54359;59.124;37.910;2023-03-04T01:19:52;97744.56;;;-1.17;76.94
67517;BME280;54359;59.124;37.910;2023-03-04T01:22:18;97739.56;;;-1.16;77.46
67517;BME280;54359;59.124;37.910;2023-03-04T01:24:46;97748.09;;;-1.11;77.43
67517;BME280;54359;59.124;37.910;2023-03-04T01:27:12;97747.22;;;-1.11;77.21
67517;BME280;54359;59.124;37.910;2023-03-04T01:29:38;97737.09;;;-1.14;76.88
67517;BME280;54359;59.124;37.910;2023-03-04T01:32:04;97733.50;;;-1.24;77.15
67517;BME280;54359;59.124;37.910;2023-03-04T01:34:30;97742.03;;;-1.19;77.40
67517;BME280;54359;59.124;37.910;2023-03-04T01:36:56;97719.19;;;-1.27;77.26
67517;BME280;54359;59.124;37.910;2023-03-04T01:39:21;97731.03;;;-1.23;77.36
67517;BME280;54359;59.124;37.910;2023-03-04T01:41:48;97733.59;;;-1.19;76.95
67517;BME280;54359;59.124;37.910;2023-03-04T01:44:14;97714.19;;;-1.24;77.43
67517;BME280;54359;59.124;37.910;2023-03-04T01:46:43;97707.38;;;-1.29;77.05
67517;BME280;54359;59.124;37.910;2023-03-04T01:49:13;97726.16;;;-1.13;77.31
67517;BME280;54359;59.124;37.910;2023-03-04T01:51:41;97726.19;;;-1.12;77.46
67517;BME280;54359;59.124;37.910;2023-03-04T01:54:07;97720.38;;;-1.09;77.26
67517;BME280;54359;59.124;37.910;2023-03-04T01:56:36;97712.72;;;-1.14;77.35
67517;BME280;54359;59.124;37.910;2023-03-04T01:59:20;97719.56;;;-1.08;77.33
67517;BME280;54359;59.124;37.910;2023-03-04T02:01:55;97712.03;;;-1.07;77.49
67517;BME280;54359;59.124;37.910;2023-03-04T02:04:24;97714.56;;;-1.05;77.57
67517;BME280;54359;59.124;37.910;2023-03-04T02:06:51;97707.03;;;-1.04;77.51
67517;BME280;54359;59.124;37.910;2023-03-04T02:09:18;97699.44;;;-1.07;77.28
67517;BME280;54359;59.124;37.910;2023-03-04T02:11:45;97702.84;;;-1.05;77.69
67517;BME280;54359;59.124;37.910;2023-03-04T02:14:11;97707.88;;;-1.03;77.38
67517;BME280;54359;59.124;37.910;2023-03-04T02:16:38;97697.78;;;-1.03;77.25
67517;BME280;54359;59.124;37.910;2023-03-04T02:19:14;97694.44;;;-1.04;77.53
67517;BME280;54359;59.124;37.910;2023-03-04T02:21:40;97694.41;;;-1.05;77.51
67517;BME280;54359;59.124;37.910;2023-03-04T02:26:35;97688.50;;;-1.06;77.39
67517;BME280;54359;59.124;37.910;2023-03-04T02:29:02;97664.88;;;-1.12;77.03
67517;BME280;54359;59.124;37.910;2023-03-04T02:31:44;97658.19;;;-1.10;77.52
67517;BME280;54359;59.124;37.910;2023-03-04T02:34:26;97687.66;;;-1.06;77.55
67517;BME280;54359;59.124;37.910;2023-03-04T02:36:53;97690.16;;;-1.08;77.45
67517;BME280;54359;59.124;37.910;2023-03-04T02:41:48;97696.25;;;-0.96;77.93
67517;BME280;54359;59.124;37.910;2023-03-04T02:46:45;97691.97;;;-1.00;77.41
67517;BME280;54359;59.124;37.910;2023-03-04T02:49:12;97681.81;;;-1.04;77.83
67517;BME280;54359;59.124;37.910;2023-03-04T02:51:38;97694.50;;;-0.99;77.30
67517;BME280;54359;59.124;37.910;2023-03-04T02:54:04;97683.53;;;-1.01;77.43
67517;BME280;54359;59.124;37.910;2023-03-04T02:56:29;97689.44;;;-1.02;77.02
67517;BME280;54359;59.124;37.910;2023-03-04T02:58:55;97675.09;;;-1.03;77.83
67517;BME280;54359;59.124;37.910;2023-03-04T03:01:21;97679.31;;;-1.04;77.63
67517;BME280;54359;59.124;37.910;2023-03-04T03:03:47;97678.50;;;-1.01;77.06
67517;BME280;54359;59.124;37.910;2023-03-04T03:06:12;97673.50;;;-0.99;77.55
67517;BME280;54359;59.124;37.910;2023-03-04T03:08:38;97659.97;;;-1.03;77.65
67517;BME280;54359;59.124;37.910;2023-03-04T03:11:04;97665.13;;;-0.98;77.49
67517;BME280;54359;59.124;37.910;2023-03-04T03:13:31;97663.47;;;-0.96;77.97
67517;BME280;54359;59.124;37.910;2023-03-04T03:15:57;97662.66;;;-0.95;77.39
67517;BME280;54359;59.124;37.910;2023-03-04T03:18:23;97660.25;;;-0.89;77.79
67517;BME280;54359;59.124;37.910;2023-03-04T03:20:49;97657.63;;;-0.94;77.58
67517;BME280;54359;59.124;37.910;2023-03-04T03:23:15;97656.03;;;-0.89;77.62
67517;BME280;54359;59.124;37.910;2023-03-04T03:25:42;97654.38;;;-0.88;77.22
67517;BME280;54359;59.124;37.910;2023-03-04T03:28:08;97649.31;;;-0.90;77.27
67517;BME280;54359;59.124;37.910;2023-03-04T03:30:34;97634.09;;;-0.94;77.42
67517;BME280;54359;59.124;37.910;2023-03-04T03:33:00;97644.31;;;-0.88;77.34
67517;BME280;54359;59.124;37.910;2023-03-04T03:35:25;97643.47;;;-0.87;77.59
67517;BME280;54359;59.124;37.910;2023-03-04T03:37:51;97641.78;;;-0.88;77.47
67517;BME280;54359;59.124;37.910;2023-03-04T03:40:17;97630.81;;;-0.89;77.07
67517;BME280;54359;59.124;37.910;2023-03-04T03:42:43;97628.22;;;-0.93;77.76
67517;BME280;54359;59.124;37.910;2023-03-04T03:45:09;97632.44;;;-0.94;77.17
67517;BME280;54359;59.124;37.910;2023-03-04T03:47:35;97623.16;;;-0.96;77.45
67517;BME280;54359;59.124;37.910;2023-03-04T03:50:01;97630.75;;;-0.93;77.75
67517;BME280;54359;59.124;37.910;2023-03-04T03:52:26;97635.75;;;-0.96;77.58
67517;BME280;54359;59.124;37.910;2023-03-04T03:54:52;97612.03;;;-1.06;77.43
67517;BME280;54359;59.124;37.910;2023-03-04T03:57:18;97623.00;;;-1.04;77.63
67517;BME280;54359;59.124;37.910;2023-03-04T03:59:43;97611.97;;;-1.11;77.71
67517;BME280;54359;59.124;37.910;2023-03-04T04:02:09;97616.91;;;-1.15;77.42
67517;BME280;54359;59.124;37.910;2023-03-04T04:04:35;97621.06;;;-1.19;77.22
67517;BME280;54359;59.124;37.910;2023-03-04T04:07:00;97617.63;;;-1.23;77.72
67517;BME280;54359;59.124;37.910;2023-03-04T04:09:26;97610.75;;;-1.30;77.50
67517;BME280;54359;59.124;37.910;2023-03-04T04:11:52;97608.22;;;-1.30;77.84
67517;BME280;54359;59.124;37.910;2023-03-04T04:14:18;97608.22;;;-1.30;77.33
67517;BME280;54359;59.124;37.910;2023-03-04T04:16:43;97604.81;;;-1.32;77.66
67517;BME280;54359;59.124;37.910;2023-03-04T04:19:16;97608.22;;;-1.30;77.47
67517;BME280;54359;59.124;37.910;2023-03-04T04:21:42;97593.97;;;-1.29;78.04
67517;BME280;54359;59.124;37.910;2023-03-04T04:24:08;97599.06;;;-1.26;77.95
67517;BME280;54359;59.124;37.910;2023-03-04T04:26:34;97589.84;;;-1.24;78.34
67517;BME280;54359;59.124;37.910;2023-03-04T04:28:59;97587.38;;;-1.23;78.35
67517;BME280;54359;59.124;37.910;2023-03-04T04:31:25;97594.22;;;-1.15;77.81
67517;BME280;54359;59.124;37.910;2023-03-04T04:33:51;97597.66;;;-1.12;77.97
67517;BME280;54359;59.124;37.910;2023-03-04T04:36:17;97594.31;;;-1.11;77.92
67517;BME280;54359;59.124;37.910;2023-03-04T04:38:42;97596.88;;;-1.08;78.39
67517;BME280;54359;59.124;37.910;2023-03-04T04:41:30;97604.50;;;-1.03;77.94
67517;BME280;54359;59.124;37.910;2023-03-04T04:43:56;97591.03;;;-1.05;77.94
67517;BME280;54359;59.124;37.910;2023-03-04T04:46:22;97592.00;;;-0.98;77.92
67517;BME280;54359;59.124;37.910;2023-03-04T04:48:48;97591.19;;;-0.96;78.21
67517;BME280;54359;59.124;37.910;2023-03-04T04:51:14;97594.66;;;-0.89;78.34
67517;BME280;54359;59.124;37.910;2023-03-04T04:53:40;97595.63;;;-0.84;78.14
67517;BME280;54359;59.124;37.910;2023-03-04T04:56:14;97588.06;;;-0.84;78.41
67517;BME280;54359;59.124;37.910;2023-03-04T04:58:40;97601.63;;;-0.76;78.13
67517;BME280;54359;59.124;37.910;2023-03-04T05:01:06;97590.75;;;-0.73;78.31
67517;BME280;54359;59.124;37.910;2023-03-04T05:03:33;97597.50;;;-0.71;78.27
67517;BME280;54359;59.124;37.910;2023-03-04T05:05:59;97598.34;;;-0.70;78.06
67517;BME280;54359;59.124;37.910;2023-03-04T05:08:25;97593.41;;;-0.66;78.43
67517;BME280;54359;59.124;37.910;2023-03-04T05:10:52;97588.34;;;-0.66;78.38
67517;BME280;54359;59.124;37.910;2023-03-04T05:13:18;97577.38;;;-0.66;78.53
67517;BME280;54359;59.124;37.910;2023-03-04T05:15:44;97593.59;;;-0.53;78.52
67517;BME280;54359;59.124;37.910;2023-03-04T05:18:10;97585.19;;;-0.52;78.63
67517;BME280;54359;59.124;37.910;2023-03-04T05:20:36;97580.09;;;-0.54;78.42
67517;BME280;54359;59.124;37.910;2023-03-04T05:23:02;97584.50;;;-0.42;78.75
67517;BME280;54359;59.124;37.910;2023-03-04T05:25:28;97580.28;;;-0.42;78.73
67517;BME280;54359;59.124;37.910;2023-03-04T05:27:53;97589.75;;;-0.28;78.70
67517;BME280;54359;59.124;37.910;2023-03-04T05:30:19;97578.72;;;-0.33;78.57
67517;BME280;54359;59.124;37.910;2023-03-04T05:32:45;97592.38;;;-0.22;78.80
67517;BME280;54359;59.124;37.910;2023-03-04T05:35:11;97578.94;;;-0.19;78.70
67517;BME280;54359;59.124;37.910;2023-03-04T05:37:36;97579.88;;;-0.11;78.22
67517;BME280;54359;59.124;37.910;2023-03-04T05:40:03;97580.81;;;-0.06;78.33
67517;BME280;54359;59.124;37.910;2023-03-04T05:42:29;97578.28;;;-0.05;78.35
67517;BME280;54359;59.124;37.910;2023-03-04T05:44:55;97569.09;;;-0.01;77.93
67517;BME280;54359;59.124;37.910;2023-03-04T05:47:21;97564.94;;;0.06;78.16
67517;BME280;54359;59.124;37.910;2023-03-04T05:49:47;97559.88;;;0.03;78.31
67517;BME280;54359;59.124;37.910;2023-03-04T05:52:13;97575.94;;;0.09;78.28
67517;BME280;54359;59.124;37.910;2023-03-04T05:54:38;97561.69;;;0.13;78.35
67517;BME280;54359;59.124;37.910;2023-03-04T05:57:04;97568.53;;;0.22;78.42
67517;BME280;54359;59.124;37.910;2023-03-04T05:59:30;97566.06;;;0.28;78.67
67517;BME280;54359;59.124;37.910;2023-03-04T06:01:56;97561.06;;;0.31;78.10
67517;BME280;54359;59.124;37.910;2023-03-04T06:04:21;97548.38;;;0.25;78.72
67517;BME280;54359;59.124;37.910;2023-03-04T06:06:47;97567.06;;;0.40;78.67
67517;BME280;54359;59.124;37.910;2023-03-04T06:09:14;97567.94;;;0.44;78.71
67517;BME280;54359;59.124;37.910;2023-03-04T06:11:40;97573.09;;;0.52;78.86
67517;BME280;54359;59.124;37.910;2023-03-04T06:14:06;97565.63;;;0.59;78.42
67517;BME280;54359;59.124;37.910;2023-03-04T06:16:32;97565.69;;;0.66;78.73
67517;BME280;54359;59.124;37.910;2023-03-04T06:18:57;97561.50;;;0.71;78.90
67517;BME280;54359;59.124;37.910;2023-03-04T06:21:23;97556.53;;;0.78;78.39
67517;BME280;54359;59.124;37.910;2023-03-04T06:23:49;97562.47;;;0.82;78.18
67517;BME280;54359;59.124;37.910;2023-03-04T06:26:15;97558.31;;;0.89;78.57
67517;BME280;54359;59.124;37.910;2023-03-04T06:28:41;97553.28;;;0.92;78.73
67517;BME280;54359;59.124;37.910;2023-03-04T06:31:07;97557.63;;;1.05;78.65
67517;BME280;54359;59.124;37.910;2023-03-04T06:33:33;97564.41;;;1.09;77.95
67517;BME280;54359;59.124;37.910;2023-03-04T06:35:58;97560.19;;;1.11;77.99
67517;BME280;54359;59.124;37.910;2023-03-04T06:38:25;97561.94;;;1.15;78.40
67517;BME280;54359;59.124;37.910;2023-03-04T06:40:51;97561.97;;;1.20;77.82
67517;BME280;54359;59.124;37.910;2023-03-04T06:43:18;97554.34;;;1.18;77.94
67517;BME280;54359;59.124;37.910;2023-03-04T06:45:44;97556.06;;;1.23;78.34
67517;BME280;54359;59.124;37.910;2023-03-04T06:48:10;97557.78;;;1.25;78.27
67517;BME280;54359;59.124;37.910;2023-03-04T06:50:36;97562.06;;;1.29;78.08
67517;BME280;54359;59.124;37.910;2023-03-04T06:53:03;97558.72;;;1.36;78.25
67517;BME280;54359;59.124;37.910;2023-03-04T06:55:29;97557.03;;;1.38;77.87
67517;BME280;54359;59.124;37.910;2023-03-04T06:57:55;97561.28;;;1.39;78.43
67517;BME280;54359;59.124;37.910;2023-03-04T07:00:21;97556.22;;;1.41;78.42
67517;BME280;54359;59.124;37.910;2023-03-04T07:02:48;97559.63;;;1.46;78.03
67517;BME280;54359;59.124;37.910;2023-03-04T07:05:14;97567.22;;;1.46;77.78
67517;BME280;54359;59.124;37.910;2023-03-04T07:07:41;97561.31;;;1.44;77.76
67517;BME280;54359;59.124;37.910;2023-03-04T07:10:07;97554.53;;;1.43;77.54
67517;BME280;54359;59.124;37.910;2023-03-04T07:12:35;97550.38;;;1.51;78.14
67517;BME280;54359;59.124;37.910;2023-03-04T07:15:01;97552.97;;;1.56;77.98
67517;BME280;54359;59.124;37.910;2023-03-04T07:17:27;97560.59;;;1.64;77.96
67517;BME280;54359;59.124;37.910;2023-03-04T07:19:52;97550.56;;;1.74;78.26
67517;BME280;54359;59.124;37.910;2023-03-04T07:22:19;97561.56;;;1.83;78.33
67517;BME280;54359;59.124;37.910;2023-03-04T07:24:45;97556.53;;;1.92;78.29
67517;BME280;54359;59.124;37.910;2023-03-04T07:27:10;97544.72;;;1.94;78.15
67517;BME280;54359;59.124;37.910;2023-03-04T07:29:36;97558.31;;;2.08;77.84
67517;BME280;54359;59.124;37.910;2023-03-04T07:32:06;97534.69;;;2.09;77.62
67517;BME280;54359;59.124;37.910;2023-03-04T07:34:32;97544.00;;;2.13;77.53
67517;BME280;54359;59.124;37.910;2023-03-04T07:36:58;97545.72;;;2.22;77.89
67517;BME280;54359;59.124;37.910;2023-03-04T07:39:24;97543.19;;;2.25;77.72
67517;BME280;54359;59.124;37.910;2023-03-04T07:41:52;97549.13;;;2.33;78.11
67517;BME280;54359;59.124;37.910;2023-03-04T07:44:19;97542.41;;;2.40;77.61
67517;BME280;54359;59.124;37.910;2023-03-04T07:46:48;97539.06;;;2.50;77.93
67517;BME280;54359;59.124;37.910;2023-03-04T07:49:14;97534.88;;;2.63;77.49
67517;BME280;54359;59.124;37.910;2023-03-04T07:51:39;97543.34;;;2.76;77.52
67517;BME280;54359;59.124;37.910;2023-03-04T07:54:06;97529.81;;;2.80;77.90
67517;BME280;54359;59.124;37.910;2023-03-04T07:56:33;97532.38;;;2.94;77.59
67517;BME280;54359;59.124;37.910;2023-03-04T07:59:00;97534.09;;;2.93;77.55
67517;BME280;54359;59.124;37.910;2023-03-04T08:01:27;97539.16;;;3.06;77.53
67517;BME280;54359;59.124;37.910;2023-03-04T08:03:53;97540.00;;;3.11;77.28
67517;BME280;54359;59.124;37.910;2023-03-04T08:06:20;97537.47;;;3.17;77.45
67517;BME280;54359;59.124;37.910;2023-03-04T08:08:48;97525.63;;;3.17;77.78
67517;BME280;54359;59.124;37.910;2023-03-04T08:11:17;97534.91;;;3.21;77.43
67517;BME280;54359;59.124;37.910;2023-03-04T08:13:44;97528.16;;;3.19;77.53
67517;BME280;54359;59.124;37.910;2023-03-04T08:16:13;97529.00;;;3.22;77.39
67517;BME280;54359;59.124;37.910;2023-03-04T08:18:44;97529.03;;;3.24;77.48
67517;BME280;54359;59.124;37.910;2023-03-04T08:21:11;97513.78;;;3.19;77.69
67517;BME280;54359;59.124;37.910;2023-03-04T08:23:38;97526.47;;;3.29;77.49
67517;BME280;54359;59.124;37.910;2023-03-04T08:26:06;97525.63;;;3.31;77.54
67517;BME280;54359;59.124;37.910;2023-03-04T08:28:34;97506.16;;;3.32;77.26
67517;BME280;54359;59.124;37.910;2023-03-04T08:31:00;97526.44;;;3.58;77.23
67517;BME280;54359;59.124;37.910;2023-03-04T08:33:26;97530.66;;;3.68;77.36
67517;BME280;54359;59.124;37.910;2023-03-04T08:35:53;97525.59;;;3.71;76.75
67517;BME280;54359;59.124;37.910;2023-03-04T08:38:19;97528.09;;;3.79;76.97
67517;BME280;54359;59.124;37.910;2023-03-04T08:40:53;97531.47;;;3.75;76.86
67517;BME280;54359;59.124;37.910;2023-03-04T08:43:19;97528.97;;;3.72;76.89
67517;BME280;54359;59.124;37.910;2023-03-04T08:45:44;97528.97;;;3.67;76.91
67517;BME280;54359;59.124;37.910;2023-03-04T08:48:10;97533.22;;;3.65;76.91
67517;BME280;54359;59.124;37.910;2023-03-04T08:50:36;97528.97;;;3.58;76.91
67517;BME280;54359;59.124;37.910;2023-03-04T08:53:02;97528.97;;;3.64;76.95
67517;BME280;54359;59.124;37.910;2023-03-04T08:55:27;97526.44;;;3.66;76.62
67517;BME280;54359;59.124;37.910;2023-03-04T08:57:53;97527.28;;;3.61;76.96
67517;BME280;54359;59.124;37.910;2023-03-04T09:00:19;97526.44;;;3.61;77.07
67517;BME280;54359;59.124;37.910;2023-03-04T09:02:46;97527.28;;;3.63;76.95
67517;BME280;54359;59.124;37.910;2023-03-04T09:05:12;97519.63;;;3.71;76.66
67517;BME280;54359;59.124;37.910;2023-03-04T09:07:38;97520.47;;;3.74;76.47
67517;BME280;54359;59.124;37.910;2023-03-04T09:10:07;97522.16;;;3.77;76.51
67517;BME280;54359;59.124;37.910;2023-03-04T09:12:33;97525.56;;;3.83;76.62
67517;BME280;54359;59.124;37.910;2023-03-04T09:14:59;97524.66;;;3.95;76.32
67517;BME280;54359;59.124;37.910;2023-03-04T09:17:24;97520.41;;;4.05;77.03
67517;BME280;54359;59.124;37.910;2023-03-04T09:19:50;97522.88;;;4.16;76.34
67517;BME280;54359;59.124;37.910;2023-03-04T09:22:17;97515.28;;;4.19;76.53
67517;BME280;54359;59.124;37.910;2023-03-04T09:24:43;97513.56;;;4.22;76.85
67517;BME280;54359;59.124;37.910;2023-03-04T09:27:08;97520.31;;;4.23;76.08
67517;BME280;54359;59.124;37.910;2023-03-04T09:29:34;97504.25;;;4.14;76.48
67517;BME280;54359;59.124;37.910;2023-03-04T09:32:01;97507.66;;;4.11;76.12
67517;BME280;54359;59.124;37.910;2023-03-04T09:34:29;97515.28;;;4.13;76.12
67517;BME280;54359;59.124;37.910;2023-03-04T09:36:55;97513.63;;;3.99;75.89
67517;BME280;54359;59.124;37.910;2023-03-04T09:39:21;97506.09;;;3.79;76.20
67517;BME280;54359;59.124;37.910;2023-03-04T09:41:52;97513.69;;;3.90;76.29
67517;BME280;54359;59.124;37.910;2023-03-04T09:44:29;97518.72;;;4.04;76.49
67517;BME280;54359;59.124;37.910;2023-03-04T09:47:02;97517.03;;;3.98;76.05
67517;BME280;54359;59.124;37.910;2023-03-04T09:49:29;97496.75;;;3.77;75.65
67517;BME280;54359;59.124;37.910;2023-03-04T09:57:53;97518.00;;;3.53;76.11
67517;BME280;54359;59.124;37.910;2023-03-04T10:00:28;97515.47;;;3.45;76.45
67517;BME280;54359;59.124;37.910;2023-03-04T10:06:01;97515.44;;;3.48;75.54
67517;BME280;54359;59.124;37.910;2023-03-04T10:08:37;97523.09;;;3.40;75.79
67517;BME280;54359;59.124;37.910;2023-03-04T10:11:14;97513.78;;;3.42;75.65
67517;BME280;54359;59.124;37.910;2023-03-04T10:13:52;97512.03;;;3.66;76.60
67517;BME280;54359;59.124;37.910;2023-03-04T10:16:23;97490.81;;;3.89;76.33
67517;BME280;54359;59.124;37.910;2023-03-04T10:18:58;97509.31;;;4.21;76.46
67517;BME280;54359;59.124;37.910;2023-03-04T10:21:41;97500.75;;;4.38;76.43
67517;BME280;54359;59.124;37.910;2023-03-04T10:24:12;97505.81;;;4.46;76.39
67517;BME280;54359;59.124;37.910;2023-03-04T10:26:46;97492.28;;;4.40;75.83
67517;BME280;54359;59.124;37.910;2023-03-04T10:29:19;97501.59;;;4.40;75.58
67517;BME280;54359;59.124;37.910;2023-03-04T10:31:46;97488.91;;;4.35;75.98
67517;BME280;54359;59.124;37.910;2023-03-04T10:34:16;97488.06;;;4.30;75.73
67517;BME280;54359;59.124;37.910;2023-03-04T10:37:00;97493.19;;;4.29;75.66
67517;BME280;54359;59.124;37.910;2023-03-04T10:44:32;97484.69;;;4.33;75.73
67517;BME280;54359;59.124;37.910;2023-03-04T10:47:00;97488.91;;;4.35;76.00
67517;BME280;54359;59.124;37.910;2023-03-04T10:49:27;97487.22;;;4.37;75.70
67517;BME280;54359;59.124;37.910;2023-03-04T10:52:01;97483.81;;;4.38;76.17
67517;BME280;54359;59.124;37.910;2023-03-04T10:55:13;97479.59;;;4.39;75.40
67517;BME280;54359;59.124;37.910;2023-03-04T10:57:23;97481.28;;;4.35;75.44
67517;BME280;54359;59.124;37.910;2023-03-04T11:02:34;97474.53;;;4.31;75.76
67517;BME280;54359;59.124;37.910;2023-03-04T11:07:43;97465.31;;;4.09;75.97
67517;BME280;54359;59.124;37.910;2023-03-04T11:12:38;97470.31;;;4.26;75.99
67517;BME280;54359;59.124;37.910;2023-03-04T11:15:22;97464.34;;;4.33;75.71
67517;BME280;54359;59.124;37.910;2023-03-04T11:18:08;97466.84;;;4.42;75.85
67517;BME280;54359;59.124;37.910;2023-03-04T11:20:40;97459.19;;;4.42;75.48
67517;BME280;54359;59.124;37.910;2023-03-04T11:26:09;97449.88;;;4.42;75.19
67517;BME280;54359;59.124;37.910;2023-03-04T11:31:45;97464.16;;;4.63;75.44
67517;BME280;54359;59.124;37.910;2023-03-04T11:34:26;97444.66;;;4.64;75.52
67517;BME280;54359;59.124;37.910;2023-03-04T11:39:57;97450.59;;;4.63;74.74
67517;BME280;54359;59.124;37.910;2023-03-04T11:45:14;97447.34;;;4.38;74.94
67517;BME280;54359;59.124;37.910;2023-03-04T11:50:50;97438.06;;;4.34;74.36
67517;BME280;54359;59.124;37.910;2023-03-04T11:53:32;97438.03;;;4.38;75.16
67517;BME280;54359;59.124;37.910;2023-03-04T12:13:51;97439.78;;;4.26;74.84
67517;BME280;54359;59.124;37.910;2023-03-04T12:19:34;97435.53;;;4.28;75.21
67517;BME280;54359;59.124;37.910;2023-03-04T12:27:38;97433.00;;;4.28;74.38
67517;BME280;54359;59.124;37.910;2023-03-04T12:52:02;97409.41;;;4.01;74.60
67517;BME280;54359;59.124;37.910;2023-03-04T12:54:40;97417.03;;;4.02;74.15
67517;BME280;54359;59.124;37.910;2023-03-04T12:57:12;97417.06;;;3.95;74.05
67517;BME280;54359;59.124;37.910;2023-03-04T13:11:41;97411.16;;;3.91;73.79
67517;BME280;54359;59.124;37.910;2023-03-04T13:14:22;97414.56;;;3.89;74.07
67517;BME280;54359;59.124;37.910;2023-03-04T13:16:57;97395.97;;;3.80;74.18
67517;BME280;54359;59.124;37.910;2023-03-04T13:51:23;97401.28;;;2.87;74.13
67517;BME280;54359;59.124;37.910;2023-03-04T14:04:16;97405.53;;;2.52;73.89
67517;BME280;54359;59.124;37.910;2023-03-04T14:06:45;97401.31;;;2.48;74.12
67517;BME280;54359;59.124;37.910;2023-03-04T14:09:19;97396.19;;;2.44;73.82
67517;BME280;54359;59.124;37.910;2023-03-04T14:11:46;97392.84;;;2.34;73.99
67517;BME280;54359;59.124;37.910;2023-03-04T14:14:18;97393.66;;;2.27;73.71
67517;BME280;54359;59.124;37.910;2023-03-04T14:16:51;97402.13;;;2.26;73.43
67517;BME280;54359;59.124;37.910;2023-03-04T14:21:55;97399.53;;;2.15;73.99
67517;BME280;54359;59.124;37.910;2023-03-04T14:24:22;97408.00;;;2.12;74.05
67517;BME280;54359;59.124;37.910;2023-03-04T14:26:48;97413.06;;;2.08;74.20
67517;BME280;54359;59.124;37.910;2023-03-04T14:29:32;97406.28;;;2.02;74.07
67517;BME280;54359;59.124;37.910;2023-03-04T14:32:00;97399.53;;;1.99;74.14
67517;BME280;54359;59.124;37.910;2023-03-04T14:34:31;97393.59;;;1.97;74.14
67517;BME280;54359;59.124;37.910;2023-03-04T14:36:59;97397.78;;;1.92;74.02
67517;BME280;54359;59.124;37.910;2023-03-04T14:39:28;97388.47;;;1.82;73.71
67517;BME280;54359;59.124;37.910;2023-03-04T14:41:58;97390.19;;;1.81;73.71
67517;BME280;54359;59.124;37.910;2023-03-04T14:44:47;97393.53;;;1.76;74.11
67517;BME280;54359;59.124;37.910;2023-03-04T14:47:34;97398.59;;;1.77;74.00
67517;BME280;54359;59.124;37.910;2023-03-04T14:50:09;97402.81;;;1.72;73.61
67517;BME280;54359;59.124;37.910;2023-03-04T14:52:41;97412.91;;;1.63;73.52
67517;BME280;54359;59.124;37.910;2023-03-04T14:57:39;97416.25;;;1.54;73.71
67517;BME280;54359;59.124;37.910;2023-03-04T15:03:18;97406.06;;;1.45;73.93
67517;BME280;54359;59.124;37.910;2023-03-04T15:10:09;97421.22;;;1.40;73.83
67517;BME280;54359;59.124;37.910;2023-03-04T15:12:59;97369.59;;;1.06;74.00
67517;BME280;54359;59.124;37.910;2023-03-04T15:15:43;97404.25;;;1.19;73.81
67517;BME280;54359;59.124;37.910;2023-03-04T15:18:17;97413.50;;;1.17;74.29
67517;BME280;54359;59.124;37.910;2023-03-04T15:27:33;97384.63;;;0.83;74.12
67517;BME280;54359;59.124;37.910;2023-03-04T15:36:20;97401.53;;;0.90;74.24
67517;BME280;54359;59.124;37.910;2023-03-04T15:45:37;97403.22;;;0.88;73.97
67517;BME280;54359;59.124;37.910;2023-03-04T15:48:28;97400.66;;;0.90;74.49
67517;BME280;54359;59.124;37.910;2023-03-04T15:51:26;97393.88;;;0.81;74.58
67517;BME280;54359;59.124;37.910;2023-03-04T15:54:10;97393.91;;;0.84;74.05
67517;BME280;54359;59.124;37.910;2023-03-04T15:57:23;97409.97;;;0.92;73.86
67517;BME280;54359;59.124;37.910;2023-03-04T16:00:02;97398.97;;;0.86;74.24
67517;BME280;54359;59.124;37.910;2023-03-04T16:02:42;97414.19;;;0.90;74.25